createdAt,value
2018-09-08T00:02:02.948Z,62.80
2018-09-08T00:04:30.711Z,63.30
2018-09-08T00:07:03.894Z,63.80
2018-09-08T00:09:31.616Z,63.70
2018-09-08T00:11:59.363Z,63.50
2018-09-08T00:14:27.049Z,63.80
2018-09-08T00:17:00.490Z,63.80
2018-09-08T00:19:33.746Z,63.60
2018-09-08T00:22:06.989Z,63.90
2018-09-08T00:24:40.287Z,64.20
2018-09-08T00:27:07.595Z,65.00
2018-09-08T00:29:44.344Z,64.40
2018-09-08T00:32:13.406Z,63.30
2018-09-08T00:34:41.497Z,64.00
2018-09-08T00:37:09.670Z,63.80
2018-09-08T00:39:37.540Z,63.90
2018-09-08T00:42:05.391Z,64.00
2018-09-08T00:44:33.246Z,64.00
2018-09-08T00:47:01.043Z,63.70
2018-09-08T00:49:28.932Z,64.00
2018-09-08T00:51:56.713Z,64.00
2018-09-08T00:54:24.501Z,64.70
2018-09-08T00:56:52.365Z,64.90
2018-09-08T00:59:20.102Z,63.50
2018-09-08T01:01:47.845Z,62.80
2018-09-08T01:04:15.533Z,63.00
2018-09-08T01:06:43.305Z,63.20
2018-09-08T01:09:11.112Z,63.90
2018-09-08T01:11:38.908Z,64.30
2018-09-08T01:14:06.766Z,63.70
2018-09-08T01:16:34.528Z,63.40
2018-09-08T01:19:02.226Z,63.40
2018-09-08T01:21:31.689Z,63.20
2018-09-08T01:24:00.049Z,63.50
2018-09-08T01:26:27.967Z,63.80
2018-09-08T01:28:57.130Z,64.20
2018-09-08T01:31:24.929Z,64.10
2018-09-08T01:33:53.259Z,63.70
2018-09-08T01:36:21.018Z,63.90
2018-09-08T01:38:48.737Z,64.70
2018-09-08T01:41:16.597Z,65.20
2018-09-08T01:43:44.461Z,65.00
2018-09-08T01:46:12.261Z,65.10
2018-09-08T01:48:40.026Z,65.00
2018-09-08T01:51:08.031Z,64.40
2018-09-08T01:53:35.735Z,63.80
2018-09-08T01:56:03.441Z,64.10
2018-09-08T01:58:31.427Z,64.60
2018-09-08T02:00:59.218Z,64.70
2018-09-08T02:03:27.081Z,64.80
2018-09-08T02:05:54.886Z,64.60
2018-09-08T02:08:22.632Z,64.00
2018-09-08T02:10:50.394Z,64.30
2018-09-08T02:13:18.276Z,64.60
2018-09-08T02:15:46.010Z,64.90
2018-09-08T02:18:14.121Z,65.60
2018-09-08T02:20:41.795Z,65.40
2018-09-08T02:23:09.492Z,64.30
2018-09-08T02:25:37.269Z,63.90
2018-09-08T02:28:05.022Z,63.80
2018-09-08T02:30:32.770Z,63.60
2018-09-08T02:33:00.586Z,65.00
2018-09-08T02:35:28.580Z,65.30
2018-09-08T02:37:56.281Z,65.40
2018-09-08T02:40:23.963Z,65.60
2018-09-08T02:42:51.940Z,65.80
2018-09-08T02:45:19.746Z,65.80
2018-09-08T02:47:47.547Z,65.90
2018-09-08T02:50:43.255Z,65.30
2018-09-08T02:53:11.070Z,65.20
2018-09-08T02:55:38.014Z,65.70
2018-09-08T02:58:04.591Z,66.00
2018-09-08T03:00:31.743Z,65.50
2018-09-08T03:02:58.341Z,65.10
2018-09-08T03:05:24.919Z,65.50
2018-09-08T03:07:51.781Z,65.10
2018-09-08T03:10:18.932Z,64.60
2018-09-08T03:12:45.546Z,65.10
2018-09-08T03:15:12.176Z,65.40
2018-09-08T03:17:38.829Z,64.90
2018-09-08T03:20:05.466Z,65.00
2018-09-08T03:22:32.236Z,65.30
2018-09-08T03:24:58.912Z,65.50
2018-09-08T03:27:25.528Z,65.20
2018-09-08T03:29:52.162Z,65.30
2018-09-08T03:32:18.923Z,65.00
2018-09-08T03:34:45.632Z,65.00
2018-09-08T03:37:12.181Z,65.70
2018-09-08T03:39:38.765Z,65.40
2018-09-08T03:42:05.390Z,65.80
2018-09-08T03:44:32.130Z,66.20
2018-09-08T03:46:58.825Z,65.70
2018-09-08T03:49:25.422Z,65.70
2018-09-08T03:51:52.033Z,66.20
2018-09-08T03:54:18.648Z,65.60
2018-09-08T03:56:45.270Z,65.10
2018-09-08T03:59:11.854Z,65.10
2018-09-08T04:01:38.507Z,65.00
2018-09-08T04:04:06.221Z,64.70
2018-09-08T04:06:33.942Z,64.40
2018-09-08T04:09:01.708Z,64.30
2018-09-08T04:11:29.377Z,64.90
2018-09-08T04:13:57.187Z,65.20
2018-09-08T04:16:24.888Z,65.20
2018-09-08T04:18:52.934Z,65.60
2018-09-08T04:21:20.670Z,65.40
2018-09-08T04:23:48.486Z,65.60
2018-09-08T04:26:16.273Z,64.80
2018-09-08T04:28:44.070Z,64.50
2018-09-08T04:31:11.840Z,65.10
2018-09-08T04:33:39.632Z,65.50
2018-09-08T04:36:07.593Z,66.10
2018-09-08T04:38:36.480Z,65.30
2018-09-08T04:41:04.259Z,64.80
2018-09-08T04:43:32.128Z,64.60
2018-09-08T04:45:59.906Z,64.40
2018-09-08T04:48:27.660Z,65.00
2018-09-08T04:50:55.440Z,65.40
2018-09-08T04:53:23.182Z,65.60
2018-09-08T04:55:51.090Z,66.10
2018-09-08T04:58:18.849Z,66.20
2018-09-08T05:00:46.585Z,66.50
2018-09-08T05:03:14.422Z,66.00
2018-09-08T05:05:42.107Z,66.20
2018-09-08T05:08:09.837Z,66.20
2018-09-08T05:10:37.645Z,66.50
2018-09-08T05:13:05.505Z,68.10
2018-09-08T05:15:33.291Z,67.50
2018-09-08T05:18:00.953Z,66.50
2018-09-08T05:20:28.653Z,66.70
2018-09-08T05:22:56.414Z,66.70
2018-09-08T05:25:24.183Z,66.70
2018-09-08T05:27:51.927Z,67.10
2018-09-08T05:30:19.659Z,67.80
2018-09-08T05:32:47.369Z,67.40
2018-09-08T05:35:15.029Z,66.40
2018-09-08T05:37:42.762Z,66.70
2018-09-08T05:40:10.440Z,67.30
2018-09-08T05:42:38.128Z,68.10
2018-09-08T05:45:05.807Z,68.60
2018-09-08T05:47:33.470Z,69.20
2018-09-08T05:50:01.178Z,69.90
2018-09-08T05:52:28.929Z,70.30
2018-09-08T05:54:56.594Z,70.40
2018-09-08T05:57:24.366Z,70.10
2018-09-08T05:59:52.101Z,69.90
2018-09-08T06:02:19.851Z,70.00
2018-09-08T06:04:47.572Z,70.30
2018-09-08T06:07:15.268Z,70.70
2018-09-08T06:09:42.933Z,71.00
2018-09-08T06:12:10.614Z,71.50
2018-09-08T06:14:38.300Z,71.80
2018-09-08T06:17:06.026Z,72.20
2018-09-08T06:19:33.866Z,72.40
2018-09-08T06:22:01.864Z,72.30
2018-09-08T06:24:29.653Z,72.80
2018-09-08T06:26:57.378Z,73.20
2018-09-08T06:29:25.066Z,73.70
2018-09-08T06:31:52.895Z,74.10
2018-09-08T06:34:20.612Z,74.20
2018-09-08T06:36:48.289Z,74.20
2018-09-08T06:39:16.386Z,74.20
2018-09-08T06:41:44.374Z,74.40
2018-09-08T06:44:12.174Z,74.50
2018-09-08T06:46:40.025Z,74.50
2018-09-08T06:49:07.781Z,74.50
2018-09-08T06:51:36.299Z,74.70
2018-09-08T06:54:04.024Z,74.40
2018-09-08T06:56:31.729Z,74.50
2018-09-08T06:59:00.049Z,74.20
2018-09-08T07:01:27.921Z,74.40
2018-09-08T07:03:55.819Z,74.30
2018-09-08T07:06:23.740Z,74.30
2018-09-08T07:08:51.567Z,73.70
2018-09-08T07:11:19.449Z,74.00
2018-09-08T07:13:47.225Z,75.00
2018-09-08T07:16:15.016Z,73.90
2018-09-08T07:18:42.777Z,73.20
2018-09-08T07:21:10.615Z,72.50
2018-09-08T07:23:38.641Z,72.60
2018-09-08T07:26:06.382Z,72.50
2018-09-08T07:28:34.164Z,72.10
2018-09-08T07:31:02.121Z,70.20
2018-09-08T07:33:30.363Z,69.90
2018-09-08T07:35:58.025Z,69.00
2018-09-08T07:38:25.773Z,68.40
2018-09-08T07:40:53.535Z,66.50
2018-09-08T07:43:21.420Z,66.80
2018-09-08T07:45:49.372Z,65.60
2018-09-08T07:48:17.170Z,65.40
2018-09-08T07:50:44.861Z,64.30
2018-09-08T07:53:12.591Z,63.20
2018-09-08T07:55:40.431Z,61.50
2018-09-08T07:58:08.243Z,61.20
2018-09-08T08:00:36.027Z,59.90
2018-09-08T08:03:03.766Z,59.60
2018-09-08T08:05:31.498Z,59.60
2018-09-08T08:07:59.293Z,59.30
2018-09-08T08:10:27.242Z,58.20
2018-09-08T08:12:55.038Z,56.80
2018-09-08T08:15:22.959Z,56.20
2018-09-08T08:17:50.812Z,57.10
2018-09-08T08:20:18.574Z,57.50
2018-09-08T08:22:46.294Z,56.90
2018-09-08T08:25:14.190Z,56.20
2018-09-08T08:27:41.948Z,55.60
2018-09-08T08:30:09.749Z,56.10
2018-09-08T08:32:37.464Z,55.60
2018-09-08T08:35:05.246Z,55.50
2018-09-08T08:37:33.019Z,55.60
2018-09-08T08:40:00.811Z,55.30
2018-09-08T08:42:28.570Z,54.60
2018-09-08T08:44:56.362Z,54.10
2018-09-08T08:47:24.104Z,53.90
2018-09-08T08:50:03.159Z,53.50
2018-09-08T08:52:42.191Z,52.80
2018-09-08T08:55:08.995Z,52.60
2018-09-08T08:57:36.770Z,52.40
2018-09-08T09:00:04.717Z,51.60
2018-09-08T09:02:32.471Z,51.90
2018-09-08T09:05:00.210Z,51.40
2018-09-08T09:07:28.541Z,50.80
2018-09-08T09:09:56.404Z,51.00
2018-09-08T09:12:24.428Z,51.20
2018-09-08T09:14:52.238Z,51.00
2018-09-08T09:17:20.001Z,50.70
2018-09-08T09:19:59.078Z,50.00
2018-09-08T09:24:44.580Z,50.40
2018-09-08T09:27:11.966Z,49.60
2018-09-08T09:29:39.703Z,49.00
2018-09-08T09:32:07.435Z,48.80
2018-09-08T09:34:35.156Z,49.30
2018-09-08T09:37:02.862Z,48.10
2018-09-08T09:39:30.676Z,47.80
2018-09-08T09:41:58.414Z,47.20
2018-09-08T09:44:26.283Z,46.50
2018-09-08T09:46:54.326Z,47.20
2018-09-08T09:49:22.062Z,46.30
2018-09-08T09:51:49.801Z,47.50
2018-09-08T09:54:18.021Z,46.00
2018-09-08T09:56:45.783Z,46.00
2018-09-08T09:59:13.624Z,44.70
2018-09-08T10:01:47.830Z,45.50
2018-09-08T10:04:16.144Z,44.60
2018-09-08T10:06:44.207Z,45.40
2018-09-08T10:09:11.940Z,44.60
2018-09-08T10:11:39.709Z,45.40
2018-09-08T10:14:07.446Z,45.00
2018-09-08T10:16:35.371Z,43.80
2018-09-08T10:19:03.127Z,43.40
2018-09-08T10:21:30.918Z,44.10
2018-09-08T10:24:05.161Z,43.70
2018-09-08T10:26:26.630Z,44.30
2018-09-08T10:28:54.416Z,43.20
2018-09-08T10:31:22.150Z,42.60
2018-09-08T10:33:49.927Z,42.80
2018-09-08T10:36:17.682Z,42.60
2018-09-08T10:38:45.523Z,41.70
2018-09-08T10:41:13.260Z,42.50
2018-09-08T10:43:41.153Z,43.30
2018-09-08T10:46:08.998Z,42.50
2018-09-08T10:48:36.720Z,42.30
2018-09-08T10:51:13.876Z,41.70
2018-09-08T10:53:41.633Z,40.10
2018-09-08T10:56:10.333Z,41.20
2018-09-08T10:58:38.122Z,41.50
2018-09-08T11:01:05.887Z,42.00
2018-09-08T11:03:33.645Z,41.30
2018-09-08T11:06:01.358Z,41.20
2018-09-08T11:08:29.092Z,41.70
2018-09-08T11:10:56.995Z,42.10
2018-09-08T11:13:24.770Z,42.00
2018-09-08T11:15:52.843Z,41.40
2018-09-08T11:18:20.592Z,40.90
2018-09-08T11:20:48.309Z,40.90
2018-09-08T11:23:16.017Z,40.90
2018-09-08T11:25:43.753Z,40.30
2018-09-08T11:28:11.527Z,41.00
2018-09-08T11:30:39.271Z,41.70
2018-09-08T11:33:07.000Z,41.50
2018-09-08T11:35:34.697Z,41.70
2018-09-08T11:38:02.488Z,42.10
2018-09-08T11:40:30.218Z,42.30
2018-09-08T11:42:57.922Z,42.20
2018-09-08T11:45:25.741Z,43.30
2018-09-08T11:47:53.576Z,42.20
2018-09-08T11:50:21.253Z,40.80
2018-09-08T11:52:48.996Z,41.70
2018-09-08T11:55:16.677Z,41.70
2018-09-08T11:57:44.358Z,42.00
2018-09-08T12:00:12.089Z,42.00
2018-09-08T12:02:39.779Z,41.60
2018-09-08T12:05:07.634Z,41.10
2018-09-08T12:07:35.370Z,42.40
2018-09-08T12:10:03.162Z,42.00
2018-09-08T12:12:30.881Z,41.20
2018-09-08T12:14:58.578Z,40.00
2018-09-08T12:17:33.283Z,39.70
2018-09-08T12:20:01.048Z,40.60
2018-09-08T12:22:28.764Z,40.30
2018-09-08T12:24:56.649Z,40.00
2018-09-08T12:27:24.407Z,40.40
2018-09-08T12:29:52.199Z,40.00
2018-09-08T12:32:19.870Z,39.30
2018-09-08T12:34:47.601Z,40.30
2018-09-08T12:37:15.545Z,39.60
2018-09-08T12:39:43.427Z,39.60
2018-09-08T12:42:11.127Z,39.70
2018-09-08T12:44:38.842Z,39.90
2018-09-08T12:47:06.664Z,41.40
2018-09-08T12:49:34.384Z,40.70
2018-09-08T12:52:02.864Z,39.80
2018-09-08T12:54:30.566Z,41.30
2018-09-08T12:56:58.306Z,41.70
2018-09-08T12:59:26.084Z,41.00
2018-09-08T13:01:53.997Z,40.60
2018-09-08T13:04:21.723Z,40.80
2018-09-08T13:06:49.530Z,41.30
2018-09-08T13:09:17.218Z,40.00
2018-09-08T13:11:44.930Z,40.80
2018-09-08T13:14:12.695Z,41.00
2018-09-08T13:16:40.482Z,41.20
2018-09-08T13:19:08.232Z,41.10
2018-09-08T13:21:42.689Z,41.20
2018-09-08T13:24:10.472Z,41.60
2018-09-08T13:26:38.383Z,41.80
2018-09-08T13:29:06.304Z,41.40
2018-09-08T13:31:34.057Z,41.50
2018-09-08T13:34:02.653Z,41.20
2018-09-08T13:36:30.414Z,41.70
2018-09-08T13:38:58.118Z,41.10
2018-09-08T13:41:25.889Z,41.20
2018-09-08T13:43:53.680Z,41.30
2018-09-08T13:46:21.511Z,41.10
2018-09-08T13:48:49.366Z,41.70
2018-09-08T13:51:17.059Z,41.40
2018-09-08T13:53:45.173Z,42.20
2018-09-08T13:56:12.850Z,40.60
2018-09-08T13:58:40.662Z,40.70
2018-09-08T14:01:08.416Z,41.00
2018-09-08T14:03:36.122Z,41.00
2018-09-08T14:06:03.872Z,40.80
2018-09-08T14:08:31.543Z,40.60
2018-09-08T14:10:59.323Z,40.70
2018-09-08T14:13:27.099Z,40.30
2018-09-08T14:15:54.813Z,41.20
2018-09-08T14:18:22.523Z,41.00
2018-09-08T14:20:50.195Z,41.20
2018-09-08T14:23:18.096Z,41.30
2018-09-08T14:25:45.796Z,41.40
2018-09-08T14:28:13.896Z,41.30
2018-09-08T14:30:41.603Z,41.50
2018-09-08T14:33:16.021Z,40.60
2018-09-08T14:35:43.790Z,40.70
2018-09-08T14:38:11.603Z,40.80
2018-09-08T14:40:39.317Z,40.50
2018-09-08T14:43:07.033Z,41.10
2018-09-08T14:45:34.765Z,39.90
2018-09-08T14:48:02.462Z,40.00
2018-09-08T14:50:30.407Z,40.80
2018-09-08T14:52:58.114Z,40.10
2018-09-08T14:55:25.848Z,39.60
2018-09-08T14:57:53.611Z,38.60
2018-09-08T15:00:21.353Z,38.80
2018-09-08T15:02:49.051Z,39.00
2018-09-08T15:05:16.827Z,39.60
2018-09-08T15:07:44.581Z,39.80
2018-09-08T15:10:12.302Z,40.10
2018-09-08T15:12:40.138Z,38.40
2018-09-08T15:15:07.931Z,38.10
2018-09-08T15:17:35.665Z,40.10
2018-09-08T15:20:03.563Z,39.50
2018-09-08T15:22:31.283Z,39.30
2018-09-08T15:24:59.069Z,39.30
2018-09-08T15:27:26.795Z,39.70
2018-09-08T15:29:54.580Z,39.80
2018-09-08T15:32:22.525Z,40.50
2018-09-08T15:34:50.210Z,40.00
2018-09-08T15:37:17.978Z,39.90
2018-09-08T15:39:45.798Z,39.90
2018-09-08T15:42:13.546Z,40.80
2018-09-08T15:44:41.297Z,40.00
2018-09-08T15:47:09.030Z,39.80
2018-09-08T15:49:36.761Z,39.50
2018-09-08T15:52:04.565Z,39.70
2018-09-08T15:54:32.362Z,39.80
2018-09-08T15:57:00.134Z,40.00
2018-09-08T15:59:27.859Z,39.80
2018-09-08T16:01:55.598Z,40.30
2018-09-08T16:04:23.387Z,39.30
2018-09-08T16:06:51.173Z,39.50
2018-09-08T16:09:19.917Z,39.80
2018-09-08T16:11:47.746Z,40.10
2018-09-08T16:14:15.514Z,40.10
2018-09-08T16:16:43.226Z,40.50
2018-09-08T16:19:10.957Z,41.70
2018-09-08T16:21:38.690Z,39.70
2018-09-08T16:24:06.464Z,40.40
2018-09-08T16:26:34.227Z,40.30
2018-09-08T16:29:02.071Z,41.10
2018-09-08T16:31:29.848Z,40.50
2018-09-08T16:33:57.621Z,40.90
2018-09-08T16:36:25.364Z,41.10
2018-09-08T16:38:53.247Z,42.20
2018-09-08T16:41:20.960Z,42.40
2018-09-08T16:43:48.760Z,43.10
2018-09-08T16:46:16.471Z,43.50
2018-09-08T16:48:44.181Z,44.00
2018-09-08T16:51:11.906Z,44.10
2018-09-08T16:53:39.768Z,44.20
2018-09-08T16:56:07.488Z,44.80
2018-09-08T16:58:35.232Z,44.20
2018-09-08T17:01:03.134Z,44.40
2018-09-08T17:03:32.052Z,44.20
2018-09-08T17:05:59.937Z,45.00
2018-09-08T17:08:27.716Z,44.10
2018-09-08T17:10:55.445Z,44.50
2018-09-08T17:13:23.357Z,44.60
2018-09-08T17:15:51.176Z,43.80
2018-09-08T17:18:19.097Z,43.50
2018-09-08T17:20:46.825Z,43.60
2018-09-08T17:23:14.493Z,43.60
2018-09-08T17:25:42.345Z,43.40
2018-09-08T17:28:10.145Z,43.00
2018-09-08T17:30:37.958Z,43.00
2018-09-08T17:33:06.043Z,43.10
2018-09-08T17:35:33.720Z,43.20
2018-09-08T17:38:01.506Z,43.40
2018-09-08T17:40:29.213Z,43.80
2018-09-08T17:42:57.169Z,43.70
2018-09-08T17:45:25.744Z,43.50
2018-09-08T17:47:53.510Z,43.80
2018-09-08T17:50:21.368Z,43.60
2018-09-08T17:52:49.115Z,43.90
2018-09-08T17:55:17.102Z,44.40
2018-09-08T17:57:44.892Z,44.70
2018-09-08T18:00:13.169Z,45.30
2018-09-08T18:02:41.206Z,44.60
2018-09-08T18:05:09.597Z,44.90
2018-09-08T18:07:37.312Z,45.40
2018-09-08T18:10:05.823Z,45.50
2018-09-08T18:12:33.564Z,45.50
2018-09-08T18:15:01.283Z,45.80
2018-09-08T18:17:29.113Z,46.20
2018-09-08T18:19:56.813Z,48.70
2018-09-08T18:22:24.552Z,51.50
2018-09-08T18:24:52.406Z,51.30
2018-09-08T18:27:20.132Z,50.70
2018-09-08T18:29:47.842Z,50.20
2018-09-08T18:32:15.537Z,49.20
2018-09-08T18:34:43.865Z,49.30
2018-09-08T18:37:11.621Z,49.80
2018-09-08T18:39:40.331Z,49.60
2018-09-08T18:42:08.108Z,49.80
2018-09-08T18:44:35.860Z,50.10
2018-09-08T18:47:03.572Z,50.60
2018-09-08T18:49:31.414Z,50.80
2018-09-08T18:51:59.183Z,51.00
2018-09-08T18:54:26.864Z,51.30
2018-09-08T18:56:54.560Z,51.60
2018-09-08T18:59:22.262Z,51.60
2018-09-08T19:01:50.109Z,51.40
2018-09-08T19:04:17.794Z,51.90
2018-09-08T19:06:45.525Z,52.20
2018-09-08T19:09:13.204Z,52.50
2018-09-08T19:11:41.069Z,52.20
2018-09-08T19:14:14.565Z,52.40
2018-09-08T19:16:42.344Z,53.00
2018-09-08T19:19:10.200Z,53.80
2018-09-08T19:21:37.952Z,53.80
2018-09-08T19:24:11.183Z,53.60
2018-09-08T19:26:38.853Z,54.10
2018-09-08T19:30:10.947Z,54.30
2018-09-08T19:32:38.670Z,54.20
2018-09-08T19:35:11.978Z,54.20
2018-09-08T19:37:39.710Z,55.00
2018-09-08T19:40:13.299Z,54.40
2018-09-08T19:42:41.141Z,54.70
2018-09-08T19:45:08.899Z,54.40
2018-09-08T19:47:42.592Z,55.10
2018-09-08T19:50:10.337Z,55.20
2018-09-08T19:52:43.791Z,55.10
2018-09-08T19:55:11.486Z,55.10
2018-09-08T19:57:44.923Z,54.60
2018-09-08T20:00:12.660Z,54.70
2018-09-08T20:02:40.411Z,54.60
2018-09-08T20:05:08.185Z,55.10
2018-09-08T20:07:36.143Z,54.50
2018-09-08T20:10:04.075Z,54.70
2018-09-08T20:12:31.827Z,54.80
2018-09-08T20:14:59.679Z,55.20
2018-09-08T20:17:27.424Z,54.90
2018-09-08T20:19:55.348Z,55.10
2018-09-08T20:22:22.984Z,54.70
2018-09-08T20:24:50.962Z,54.60
2018-09-08T20:27:19.124Z,54.80
2018-09-08T20:29:46.840Z,55.50
2018-09-08T20:32:14.790Z,56.00
2018-09-08T20:34:42.520Z,55.80
2018-09-08T20:37:10.306Z,55.60
2018-09-08T20:39:38.111Z,55.70
2018-09-08T20:42:05.950Z,55.80
2018-09-08T20:44:33.772Z,55.50
2018-09-08T20:47:01.516Z,55.30
2018-09-08T20:49:29.328Z,55.80
2018-09-08T20:51:57.278Z,56.20
2018-09-08T20:54:25.071Z,56.10
2018-09-08T20:56:52.848Z,56.40
2018-09-08T20:59:20.747Z,55.90
2018-09-08T21:01:48.621Z,56.20
2018-09-08T21:04:16.445Z,56.60
2018-09-08T21:06:44.158Z,56.80
2018-09-08T21:09:19.754Z,56.60
2018-09-08T21:11:48.873Z,56.70
2018-09-08T21:14:17.163Z,55.90
2018-09-08T21:16:45.034Z,55.50
2018-09-08T21:19:12.785Z,55.70
2018-09-08T21:21:40.687Z,55.90
2018-09-08T21:24:08.515Z,56.50
2018-09-08T21:26:36.245Z,56.40
2018-09-08T21:29:04.014Z,56.10
2018-09-08T21:31:31.783Z,56.20
2018-09-08T21:34:00.045Z,55.80
2018-09-08T21:36:27.736Z,56.00
2018-09-08T21:38:55.416Z,56.40
2018-09-08T21:41:23.067Z,56.70
2018-09-08T21:43:50.721Z,57.30
2018-09-08T21:46:18.493Z,56.80
2018-09-08T21:48:46.183Z,57.10
2018-09-08T21:51:13.945Z,57.10
2018-09-08T21:53:41.602Z,56.50
2018-09-08T21:56:09.297Z,56.80
2018-09-08T21:58:36.988Z,56.50
2018-09-08T22:01:10.302Z,56.10
2018-09-08T22:03:37.987Z,56.40
2018-09-08T22:06:05.798Z,56.70
2018-09-08T22:08:36.370Z,57.10
2018-09-08T22:11:04.270Z,57.20
2018-09-08T22:13:32.059Z,57.00
2018-09-08T22:15:59.854Z,57.00
2018-09-08T22:18:27.870Z,57.30
2018-09-08T22:20:55.671Z,57.40
2018-09-08T22:23:23.511Z,57.60
2018-09-08T22:25:51.218Z,57.50
2018-09-08T22:28:19.123Z,57.50
2018-09-08T22:30:47.007Z,57.50
2018-09-08T22:33:14.887Z,57.50
2018-09-08T22:35:42.921Z,57.70
2018-09-08T22:38:10.761Z,57.80
2018-09-08T22:40:38.515Z,57.80
2018-09-08T22:43:06.501Z,58.00
2018-09-08T22:45:34.219Z,58.00
2018-09-08T22:48:01.935Z,58.10
2018-09-08T22:50:30.409Z,58.20
2018-09-08T22:52:58.235Z,58.20
2018-09-08T22:55:26.081Z,58.00
2018-09-08T22:57:54.057Z,58.20
2018-09-08T23:00:21.837Z,58.30
2018-09-08T23:02:49.578Z,58.00
2018-09-08T23:05:17.538Z,58.00
2018-09-08T23:07:45.274Z,58.00
2018-09-08T23:10:13.142Z,58.50
2018-09-08T23:12:40.946Z,58.60
2018-09-08T23:15:08.735Z,58.40
2018-09-08T23:17:36.471Z,58.80
2018-09-08T23:20:04.309Z,58.40
2018-09-08T23:22:32.202Z,58.40
2018-09-08T23:24:59.934Z,58.00
2018-09-08T23:27:27.657Z,57.60
2018-09-08T23:29:55.538Z,58.10
2018-09-08T23:32:23.354Z,58.20
2018-09-08T23:34:51.061Z,58.90
2018-09-08T23:37:18.951Z,58.80
2018-09-08T23:39:46.659Z,58.20
2018-09-08T23:42:14.474Z,58.20
2018-09-08T23:44:42.230Z,58.60
2018-09-08T23:47:10.032Z,59.10
2018-09-08T23:49:37.830Z,59.00
2018-09-08T23:52:05.650Z,58.70
2018-09-08T23:54:33.374Z,59.00
2018-09-08T23:57:01.038Z,59.10
2018-09-08T23:59:29.078Z,59.50
